Time;durP1;ratioP1;P1;durP2;ratioP2;P2;SDS_P1;SDS_P2;PMS_P1;PMS_P2;Temp;Humidity;BMP_temperature;BMP_pressure;BME280_temperature;BME280_humidity;BME280_pressure;Samples;Min_cycle;Max_cycle;Signal;HPM_P1;HPM_P2
2023/07/14 00:01:24;;;;;;;7.38;3.33;;;;;;;15.74;100.00;101496.72;5091361;28;20077;-61
2023/07/14 00:03:51;;;;;;;3.90;2.40;;;;;;;15.68;100.00;101494.41;5086133;28;20608;-63
2023/07/14 00:06:19;;;;;;;4.47;2.58;;;;;;;15.65;100.00;101490.09;5085679;28;20500;-63
2023/07/14 00:08:46;;;;;;;6.25;2.80;;;;;;;15.65;100.00;101489.25;5090068;28;20549;-62
2023/07/14 00:11:23;;;;;;;6.65;2.97;;;;;;;15.63;100.00;101492.00;5099730;28;20130;-62
2023/07/14 00:13:52;;;;;;;6.72;3.00;;;;;;;15.67;100.00;101492.69;5092106;28;20596;-62
2023/07/14 00:16:23;;;;;;;4.93;2.95;;;;;;;15.60;100.00;101490.34;5088066;28;20040;-63
2023/07/14 00:18:50;;;;;;;9.95;3.58;;;;;;;15.60;100.00;101493.03;5085778;28;20055;-63
2023/07/14 00:21:23;;;;;;;10.05;4.57;;;;;;;15.58;100.00;101488.75;5095604;28;20054;-63
2023/07/14 00:23:56;;;;;;;6.05;3.88;;;;;;;15.55;100.00;101492.41;5081621;28;20048;-63
2023/07/14 00:26:22;;;;;;;8.27;4.75;;;;;;;15.51;100.00;101498.88;5092439;28;20039;-63
2023/07/14 00:28:49;;;;;;;12.25;6.22;;;;;;;15.49;100.00;101495.41;5091819;28;20054;-62
2023/07/14 00:31:19;;;;;;;6.45;4.43;;;;;;;15.38;100.00;101500.47;5091655;28;20703;-62
2023/07/14 00:33:51;;;;;;;6.45;4.50;;;;;;;15.34;100.00;101496.25;5096623;28;20143;-62
2023/07/14 00:36:18;;;;;;;8.48;3.88;;;;;;;15.32;100.00;101499.00;5097005;28;20056;-63
2023/07/14 00:38:45;;;;;;;6.25;4.15;;;;;;;15.28;100.00;101494.75;5092894;28;20075;-62
2023/07/14 00:41:23;;;;;;;5.55;3.67;;;;;;;15.28;100.00;101491.25;5090176;28;20048;-63
2023/07/14 00:43:51;;;;;;;4.70;3.35;;;;;;;15.29;100.00;101493.00;5088214;28;20044;-63
2023/07/14 00:46:28;;;;;;;5.10;3.30;;;;;;;15.27;100.00;101505.50;5089791;28;20129;-63
2023/07/14 00:49:00;;;;;;;4.63;3.00;;;;;;;15.25;100.00;101508.25;5090062;28;20139;-62
2023/07/14 00:51:29;;;;;;;7.88;3.85;;;;;;;15.26;100.00;101503.81;5086835;28;20048;-62
2023/07/14 00:53:56;;;;;;;5.38;3.00;;;;;;;15.19;100.00;101498.78;5088079;28;20047;-62
2023/07/14 00:56:34;;;;;;;6.22;2.83;;;;;;;15.16;100.00;101514.09;5086089;28;20464;-61
2023/07/14 00:59:01;;;;;;;7.10;3.25;;;;;;;15.16;100.00;101511.41;5085434;28;20549;-63
2023/07/14 01:01:31;;;;;;;7.82;3.40;;;;;;;15.08;100.00;101508.31;5088243;28;20420;-62
2023/07/14 01:03:59;;;;;;;7.57;3.38;;;;;;;15.00;100.00;101498.03;5098170;28;20055;-62
2023/07/14 01:06:31;;;;;;;8.13;3.75;;;;;;;14.98;100.00;101505.25;5102105;28;20126;-62
2023/07/14 01:08:59;;;;;;;5.15;3.42;;;;;;;14.91;100.00;101503.84;5094575;28;20051;-62
2023/07/14 01:11:31;;;;;;;4.05;2.88;;;;;;;14.90;100.00;101505.66;5076189;28;20048;-62
2023/07/14 01:14:02;;;;;;;3.92;3.00;;;;;;;14.90;100.00;101504.78;5079360;28;20476;-62
2023/07/14 01:16:30;;;;;;;4.50;2.93;;;;;;;14.86;100.00;101501.44;5075053;28;20553;-62
2023/07/14 01:18:57;;;;;;;6.07;3.25;;;;;;;14.88;100.00;101504.03;5079503;28;20064;-63
2023/07/14 01:21:25;;;;;;;9.25;3.83;;;;;;;14.84;100.00;101504.19;5076301;28;20036;-63
2023/07/14 01:24:15;;;;;;;8.93;3.25;;;;;;;14.84;100.00;101508.63;5083932;28;20047;-62
2023/07/14 01:27:05;;;;;;;5.18;3.17;;;;;;;14.82;100.00;101510.50;5090236;28;20052;-62
2023/07/14 01:29:34;;;;;;;6.57;3.55;;;;;;;14.76;100.00;101501.06;5087704;28;20043;-62
2023/07/14 01:32:03;;;;;;;8.27;3.20;;;;;;;14.76;100.00;101495.72;5088418;28;20044;-62
2023/07/14 01:34:30;;;;;;;5.95;3.83;;;;;;;14.71;100.00;101503.06;5089148;28;20425;-63
2023/07/14 01:36:58;;;;;;;5.28;3.85;;;;;;;14.69;100.00;101507.59;5088356;28;20052;-63
2023/07/14 01:39:26;;;;;;;6.22;3.15;;;;;;;14.73;100.00;101510.97;5086018;28;20040;-62
2023/07/14 01:45:52;;;;;;;8.35;3.65;;;;;;;14.60;100.00;101508.09;5074664;28;20502;-62
2023/07/14 01:48:24;;;;;;;7.05;3.17;;;;;;;14.58;100.00;101525.88;5079911;28;20139;-63
2023/07/14 01:50:56;;;;;;;9.38;4.07;;;;;;;14.55;100.00;101520.72;5081721;28;20044;-62
2023/07/14 01:53:28;;;;;;;4.80;3.80;;;;;;;14.55;100.00;101518.03;5094842;28;20050;-62
2023/07/14 01:55:58;;;;;;;8.45;3.85;;;;;;;14.55;100.00;101528.69;5080289;28;20048;-62
2023/07/14 01:58:57;;;;;;;6.70;4.20;;;;;;;14.56;100.00;101520.63;5089121;28;20391;-62
2023/07/14 02:01:25;;;;;;;8.00;3.97;;;;;;;14.59;100.00;101523.19;5076859;28;20036;-63
2023/07/14 02:03:55;;;;;;;6.10;3.78;;;;;;;14.64;100.00;101512.31;5088557;28;20682;-63
2023/07/14 02:06:23;;;;;;;9.13;3.63;;;;;;;14.63;100.00;101521.22;5076365;28;20052;-63
2023/07/14 02:08:51;;;;;;;6.40;3.50;;;;;;;14.68;100.00;101511.22;5085668;28;20048;-62
2023/07/14 02:11:20;;;;;;;10.68;4.28;;;;;;;14.70;100.00;101512.00;5085334;28;20073;-62
2023/07/14 02:13:49;;;;;;;7.55;3.47;;;;;;;14.71;100.00;101513.69;5084709;28;20058;-62
2023/07/14 02:16:16;;;;;;;7.75;3.83;;;;;;;14.67;100.00;101512.16;5082236;28;20043;-62
2023/07/14 02:18:45;;;;;;;6.00;2.85;;;;;;;14.65;100.00;101524.69;5086248;28;20052;-62
2023/07/14 02:21:14;;;;;;;5.55;3.55;;;;;;;14.60;100.00;101530.22;5086088;28;20578;-62
2023/07/14 02:23:42;;;;;;;6.25;3.80;;;;;;;14.55;100.00;101537.56;5081964;28;20048;-62
2023/07/14 02:26:28;;;;;;;8.65;3.70;;;;;;;14.56;100.00;101535.75;5088606;28;20090;-62
2023/07/14 02:28:56;;;;;;;6.25;3.17;;;;;;;14.58;100.00;101539.19;5082670;28;20410;-62
2023/07/14 02:31:44;;;;;;;6.88;3.47;;;;;;;14.55;100.00;101544.66;5084872;28;20040;-62
2023/07/14 02:34:14;;;;;;;6.00;3.75;;;;;;;14.54;100.00;101545.59;5084171;28;20047;-62
2023/07/14 02:36:54;;;;;;;7.43;3.50;;;;;;;14.43;100.00;101546.97;5079962;28;20044;-62
2023/07/14 02:39:21;;;;;;;8.20;4.13;;;;;;;14.42;100.00;101545.28;5079601;28;20137;-62
2023/07/14 02:41:51;;;;;;;9.75;4.18;;;;;;;14.41;100.00;101550.66;5090074;28;20138;-62
2023/07/14 02:44:19;;;;;;;11.20;3.80;;;;;;;14.45;100.00;101554.88;5085223;28;20046;-62
2023/07/14 02:46:58;;;;;;;7.70;3.70;;;;;;;14.41;100.00;101554.19;5079278;28;20140;-62
2023/07/14 02:49:25;;;;;;;9.63;3.90;;;;;;;14.42;100.00;101550.59;5079777;28;20677;-62
2023/07/14 02:51:51;;;;;;;5.00;3.58;;;;;;;14.39;100.00;101550.75;5084782;28;20050;-62
2023/07/14 02:54:18;;;;;;;7.53;3.50;;;;;;;14.30;100.00;101549.41;5079999;28;20048;-62
2023/07/14 02:56:44;;;;;;;6.97;3.72;;;;;;;14.30;100.00;101556.50;5077399;28;20131;-62
2023/07/14 02:59:12;;;;;;;4.40;3.30;;;;;;;14.29;100.00;101562.78;5078862;28;20048;-62
2023/07/14 03:01:39;;;;;;;6.78;4.10;;;;;;;14.30;100.00;101553.84;5099943;28;20366;-62
2023/07/14 03:04:06;;;;;;;6.75;3.53;;;;;;;14.35;100.00;101559.78;5093244;28;20101;-63
2023/07/14 03:06:32;;;;;;;7.40;3.78;;;;;;;14.41;100.00;101559.50;5084217;28;20567;-63
2023/07/14 03:08:59;;;;;;;9.15;3.38;;;;;;;14.42;100.00;101563.88;5080329;28;20147;-63
2023/07/14 03:11:25;;;;;;;6.28;4.05;;;;;;;14.45;100.00;101562.88;5083417;28;20040;-63
2023/07/14 03:13:52;;;;;;;7.68;4.10;;;;;;;14.32;100.00;101570.59;5078310;28;20083;-63
2023/07/14 03:16:20;;;;;;;8.63;3.70;;;;;;;14.30;100.00;101572.44;5077024;28;20045;-62
2023/07/14 03:18:46;;;;;;;8.90;4.38;;;;;;;14.26;100.00;101571.75;5085629;28;20051;-62
2023/07/14 03:21:13;;;;;;;9.38;4.35;;;;;;;14.25;100.00;101571.81;5080856;28;20040;-63
2023/07/14 03:23:40;;;;;;;5.38;3.70;;;;;;;14.20;100.00;101568.53;5090204;28;20071;-62
2023/07/14 03:26:08;;;;;;;9.35;3.92;;;;;;;14.21;100.00;101571.09;5093158;28;20044;-62
2023/07/14 03:28:35;;;;;;;6.22;3.90;;;;;;;14.17;100.00;101571.31;5087062;28;20546;-63
2023/07/14 03:31:02;;;;;;;8.45;4.25;;;;;;;14.10;100.00;101571.59;5088827;28;20101;-63
2023/07/14 03:33:30;;;;;;;8.10;4.60;;;;;;;14.05;100.00;101578.94;5100850;28;20044;-63
2023/07/14 03:36:04;;;;;;;7.72;4.18;;;;;;;14.04;100.00;101586.97;5085259;28;20640;-62
2023/07/14 03:38:30;;;;;;;7.05;3.92;;;;;;;13.98;100.00;101582.84;5080533;28;20582;-62
2023/07/14 03:40:57;;;;;;;5.60;3.90;;;;;;;13.97;100.00;101583.75;5084588;28;20054;-62
2023/07/14 03:43:24;;;;;;;8.88;4.55;;;;;;;13.98;100.00;101576.63;5091444;28;20659;-62
2023/07/14 03:45:50;;;;;;;5.03;4.07;;;;;;;13.95;100.00;101572.34;5090144;28;20048;-62
2023/07/14 03:48:17;;;;;;;7.65;4.38;;;;;;;13.98;100.00;101573.97;5093778;28;20073;-63
2023/07/14 03:50:43;;;;;;;7.82;4.05;;;;;;;13.95;100.00;101569.69;5088402;28;20610;-63
2023/07/14 03:53:10;;;;;;;12.77;4.60;;;;;;;13.97;100.00;101573.13;5097535;28;20051;-62
2023/07/14 03:55:36;;;;;;;11.70;4.50;;;;;;;13.89;100.00;101572.63;5087177;28;20064;-62
2023/07/14 03:58:03;;;;;;;12.77;4.90;;;;;;;13.93;100.00;101568.91;5096661;28;20066;-62
2023/07/14 04:00:31;;;;;;;6.68;4.18;;;;;;;13.90;100.00;101577.00;5075315;28;20088;-62
2023/07/14 04:02:58;;;;;;;7.13;5.00;;;;;;;13.90;100.00;101585.00;5085559;28;20048;-62
2023/07/14 04:05:26;;;;;;;9.15;4.40;;;;;;;13.91;100.00;101582.25;5088225;28;20039;-62
2023/07/14 04:07:53;;;;;;;7.97;5.40;;;;;;;13.94;100.00;101586.56;5081574;28;20066;-62
2023/07/14 04:10:19;;;;;;;7.13;4.65;;;;;;;13.95;100.00;101577.66;5088754;28;20051;-63
2023/07/14 04:12:47;;;;;;;8.30;4.53;;;;;;;13.97;100.00;101573.13;5084363;28;20040;-62
2023/07/14 04:15:14;;;;;;;5.35;3.90;;;;;;;14.02;100.00;101579.09;5079686;28;20137;-63
2023/07/14 04:17:41;;;;;;;9.95;4.82;;;;;;;14.07;100.00;101581.53;5085157;28;20494;-63
2023/07/14 04:20:08;;;;;;;7.40;4.97;;;;;;;14.13;100.00;101586.56;5089653;28;20521;-62
2023/07/14 04:22:35;;;;;;;10.05;4.05;;;;;;;14.16;100.00;101582.91;5075780;28;20166;-62
2023/07/14 04:25:02;;;;;;;7.75;4.40;;;;;;;14.22;100.00;101585.25;5074212;28;20074;-62
2023/07/14 04:27:29;;;;;;;12.30;4.82;;;;;;;14.21;100.00;101588.88;5087280;28;20101;-62
2023/07/14 04:29:56;;;;;;;8.30;4.68;;;;;;;14.22;100.00;101593.22;5085148;28;20162;-62
2023/07/14 04:32:22;;;;;;;12.25;5.45;;;;;;;14.31;100.00;101592.81;5085710;28;20054;-62
2023/07/14 04:34:49;;;;;;;6.38;4.68;;;;;;;14.33;100.00;101598.91;5088929;28;20512;-62
2023/07/14 04:37:16;;;;;;;8.40;4.45;;;;;;;14.45;100.00;101593.00;5084468;28;20052;-62
2023/07/14 04:39:44;;;;;;;7.80;4.38;;;;;;;14.50;100.00;101596.28;5083503;28;20044;-62
2023/07/14 04:42:11;;;;;;;7.63;5.18;;;;;;;14.55;100.00;101597.84;5088263;28;20101;-62
2023/07/14 04:44:39;;;;;;;7.72;4.85;;;;;;;14.59;100.00;101599.44;5079907;28;20077;-62
2023/07/14 04:47:06;;;;;;;6.85;4.22;;;;;;;14.59;100.00;101596.78;5088940;28;20059;-62
2023/07/14 04:49:33;;;;;;;5.70;4.35;;;;;;;14.61;100.00;101593.13;5081312;28;20063;-63
2023/07/14 04:52:00;;;;;;;7.28;4.32;;;;;;;14.57;100.00;101590.69;5081774;28;20048;-63
2023/07/14 04:54:27;;;;;;;6.85;4.70;;;;;;;14.57;100.00;101596.00;5085700;28;20097;-63
2023/07/14 04:56:53;;;;;;;7.38;5.30;;;;;;;14.45;100.00;101594.78;5089432;28;20052;-62
2023/07/14 04:59:20;;;;;;;8.10;4.80;;;;;;;14.52;100.00;101587.38;5088792;28;20056;-62
2023/07/14 05:01:46;;;;;;;8.07;4.65;;;;;;;14.54;100.00;101596.16;5077976;28;20583;-63
2023/07/14 05:04:13;;;;;;;8.90;5.75;;;;;;;14.63;100.00;101590.38;5098789;27;20055;-63
2023/07/14 05:06:40;;;;;;;7.57;5.35;;;;;;;14.73;100.00;101597.00;5086538;28;20131;-63
2023/07/14 05:09:07;;;;;;;10.70;4.80;;;;;;;14.79;100.00;101595.81;5085299;28;20067;-62
2023/07/14 05:11:34;;;;;;;8.43;4.68;;;;;;;14.86;100.00;101595.44;5075014;28;20105;-63
2023/07/14 05:14:03;;;;;;;7.53;5.15;;;;;;;14.89;100.00;101596.22;5093045;28;20058;-63
2023/07/14 05:16:30;;;;;;;9.98;5.55;;;;;;;14.96;100.00;101598.50;5091771;28;20143;-63
2023/07/14 05:18:57;;;;;;;8.35;5.30;;;;;;;15.01;100.00;101606.25;5087055;28;20090;-63
2023/07/14 05:21:23;;;;;;;8.20;5.78;;;;;;;14.98;100.00;101598.44;5080642;28;20147;-62
2023/07/14 05:23:50;;;;;;;9.52;5.93;;;;;;;15.07;100.00;101600.59;5092597;28;20102;-62
2023/07/14 05:26:16;;;;;;;10.85;5.50;;;;;;;15.17;100.00;101601.88;5094472;28;20044;-63
2023/07/14 05:28:43;;;;;;;8.82;5.03;;;;;;;15.13;100.00;101594.97;5086946;28;20044;-62
2023/07/14 05:31:12;;;;;;;12.35;6.20;;;;;;;15.23;100.00;101596.25;5087085;28;20050;-62
2023/07/14 05:33:39;;;;;;;9.90;4.78;;;;;;;15.29;100.00;101597.72;5098452;28;20056;-63
2023/07/14 05:36:06;;;;;;;7.68;4.97;;;;;;;15.45;100.00;101600.44;5096618;28;20054;-62
2023/07/14 05:38:33;;;;;;;8.68;5.60;;;;;;;15.49;100.00;101601.97;5087856;28;20143;-63
2023/07/14 05:40:59;;;;;;;9.23;5.22;;;;;;;15.59;100.00;101597.91;5084530;28;20151;-63
2023/07/14 05:43:27;;;;;;;7.25;5.03;;;;;;;15.65;100.00;101585.19;5093409;28;20078;-63
2023/07/14 05:45:54;;;;;;;8.65;5.00;;;;;;;15.71;100.00;101590.16;5083718;28;20430;-63
2023/07/14 05:48:21;;;;;;;6.85;5.10;;;;;;;15.81;100.00;101579.91;5098565;28;20414;-63
2023/07/14 05:50:48;;;;;;;7.65;4.40;;;;;;;15.88;100.00;101584.81;5093489;28;20101;-63
2023/07/14 05:53:20;;;;;;;9.48;4.53;;;;;;;15.95;100.00;101582.69;5095814;28;20039;-63
2023/07/14 05:55:47;;;;;;;12.48;5.20;;;;;;;16.15;100.00;101590.44;5087732;28;20132;-63
2023/07/14 05:58:14;;;;;;;7.97;4.57;;;;;;;16.19;100.00;101580.47;5082477;28;20048;-63
2023/07/14 06:00:41;;;;;;;8.88;3.80;;;;;;;16.27;100.00;101583.56;5091849;28;20143;-63
2023/07/14 06:03:16;;;;;;;11.13;4.45;;;;;;;16.36;100.00;101586.66;5093431;28;20519;-62
2023/07/14 06:05:46;;;;;;;8.55;4.03;;;;;;;16.34;100.00;101590.25;5093749;28;20411;-63
2023/07/14 06:08:13;;;;;;;6.72;4.47;;;;;;;16.55;100.00;101592.66;5093756;28;20173;-63
2023/07/14 06:10:39;;;;;;;10.68;4.78;;;;;;;16.66;100.00;101587.56;5105721;28;20083;-63
2023/07/14 06:13:06;;;;;;;4.55;2.92;;;;;;;16.68;100.00;101583.00;5098238;28;20130;-62
2023/07/14 06:15:32;;;;;;;8.50;4.07;;;;;;;16.69;100.00;101583.88;5078593;28;20139;-63
2023/07/14 06:17:59;;;;;;;10.13;3.88;;;;;;;16.81;100.00;101582.28;5082298;28;20048;-62
2023/07/14 06:20:25;;;;;;;7.65;4.03;;;;;;;16.87;100.00;101576.63;5088975;28;20044;-63
2023/07/14 06:22:56;;;;;;;9.95;3.80;;;;;;;16.93;100.00;101586.91;5081963;28;20071;-63
2023/07/14 06:25:22;;;;;;;5.47;3.80;;;;;;;16.83;100.00;101580.38;5089693;28;20563;-63
2023/07/14 06:27:49;;;;;;;5.95;4.25;;;;;;;16.94;100.00;101583.31;5093916;28;20048;-63
2023/07/14 06:30:16;;;;;;;6.85;3.47;;;;;;;17.09;100.00;101572.66;5090565;28;20104;-63
2023/07/14 06:32:42;;;;;;;9.00;3.25;;;;;;;17.24;100.00;101569.91;5088142;28;20044;-63
2023/07/14 06:35:10;;;;;;;7.95;3.47;;;;;;;17.35;100.00;101571.94;5093422;28;20048;-63
2023/07/14 06:37:37;;;;;;;5.53;2.83;;;;;;;17.47;100.00;101569.47;5088298;28;20043;-62
2023/07/14 06:40:07;;;;;;;5.50;3.22;;;;;;;17.51;100.00;101571.00;5099151;28;20048;-62
2023/07/14 06:42:33;;;;;;;5.97;3.22;;;;;;;17.56;100.00;101569.75;5086226;28;20486;-63
2023/07/14 06:45:01;;;;;;;7.97;3.55;;;;;;;17.68;100.00;101562.78;5090446;28;20044;-62
2023/07/14 06:47:28;;;;;;;5.38;3.00;;;;;;;17.80;100.00;101571.81;5082529;28;20048;-63
2023/07/14 06:49:54;;;;;;;10.23;3.55;;;;;;;17.86;100.00;101573.28;5092486;28;20064;-63
2023/07/14 06:52:21;;;;;;;8.82;3.33;;;;;;;17.88;100.00;101579.41;5091596;28;20067;-64
2023/07/14 06:54:48;;;;;;;6.68;3.78;;;;;;;17.84;100.00;101569.84;5086950;28;20048;-62
2023/07/14 06:57:14;;;;;;;8.32;3.10;;;;;;;17.99;100.00;101571.56;5092311;28;20059;-62
2023/07/14 06:59:41;;;;;;;4.93;2.80;;;;;;;18.18;100.00;101565.91;5091326;28;20056;-62
2023/07/14 07:02:12;;;;;;;4.97;2.55;;;;;;;18.30;100.00;101567.75;5094202;28;20063;-63
2023/07/14 07:04:38;;;;;;;10.50;3.10;;;;;;;18.22;100.00;101564.72;5092254;28;21136;-62
2023/07/14 07:07:05;;;;;;;7.20;2.92;;;;;;;18.33;100.00;101561.34;5082774;28;20048;-63
2023/07/14 07:09:32;;;;;;;3.60;2.30;;;;;;;18.53;100.00;101566.22;5089334;28;20501;-63
2023/07/14 07:11:58;;;;;;;7.95;3.55;;;;;;;18.54;100.00;101553.72;5102877;28;20121;-63
2023/07/14 07:14:25;;;;;;;5.18;2.70;;;;;;;18.70;100.00;101557.09;5090541;28;20082;-63
2023/07/14 07:16:51;;;;;;;6.45;2.38;;;;;;;18.81;100.00;101553.66;5077711;28;20040;-63
2023/07/14 07:19:18;;;;;;;6.80;2.70;;;;;;;18.97;100.00;101555.34;5083237;28;20055;-63
2023/07/14 07:21:45;;;;;;;4.00;1.90;;;;;;;19.02;100.00;101553.22;5074458;28;20083;-63
2023/07/14 07:24:12;;;;;;;4.28;1.88;;;;;;;19.15;100.00;101546.03;5078671;28;20044;-64
2023/07/14 07:26:39;;;;;;;2.92;2.10;;;;;;;19.24;100.00;101548.09;5080671;28;20049;-64
2023/07/14 07:29:07;;;;;;;8.73;2.25;;;;;;;19.41;100.00;101546.03;5075975;28;20053;-63
2023/07/14 07:31:34;;;;;;;5.00;1.77;;;;;;;19.41;100.00;101546.03;5074756;28;20132;-64
2023/07/14 07:34:01;;;;;;;7.90;2.20;;;;;;;19.54;100.00;101549.56;5091570;28;20093;-61
2023/07/14 07:36:27;;;;;;;3.70;2.30;;;;;;;19.65;100.00;101542.56;5093542;28;20040;-61
2023/07/14 07:38:54;;;;;;;6.40;2.47;;;;;;;19.67;100.00;101535.31;5085833;28;20540;-61
2023/07/14 07:41:24;;;;;;;6.57;2.58;;;;;;;19.89;100.00;101532.78;5098084;28;20130;-62
2023/07/14 07:43:51;;;;;;;5.85;2.42;;;;;;;19.97;100.00;101527.72;5091461;28;20576;-61
2023/07/14 07:46:21;;;;;;;6.53;3.28;;;;;;;19.98;100.00;101529.44;5094999;28;20127;-62
2023/07/14 07:48:48;;;;;;;40.20;22.27;;;;;;;20.04;100.00;101527.28;5094727;28;20051;-61
2023/07/14 07:51:15;;;;;;;9.27;3.75;;;;;;;20.04;100.00;101522.78;5085013;28;20044;-62
2023/07/14 07:53:42;;;;;;;13.55;6.63;;;;;;;20.11;100.00;101525.88;5091262;28;20039;-63
2023/07/14 07:56:10;;;;;;;5.30;2.67;;;;;;;19.83;100.00;101527.88;5090065;28;20044;-65
2023/07/14 07:58:37;;;;;;;5.22;2.50;;;;;;;20.02;100.00;101523.84;5099183;28;20051;-66
2023/07/14 08:01:05;;;;;;;6.50;2.25;;;;;;;20.22;100.00;101520.56;5101326;28;20061;-63
2023/07/14 08:03:34;;;;;;;4.32;1.88;;;;;;;20.15;100.00;101524.66;5094248;28;20083;-62
2023/07/14 08:06:03;;;;;;;2.47;1.77;;;;;;;20.13;100.00;101521.25;5084009;28;20142;-63
2023/07/14 08:08:31;;;;;;;5.72;1.80;;;;;;;20.49;100.00;101523.00;5098471;28;20126;-63
2023/07/14 08:10:57;;;;;;;5.05;2.00;;;;;;;20.58;100.00;101516.09;5079243;28;20047;-64
2023/07/14 08:13:25;;;;;;;2.80;1.73;;;;;;;20.47;100.00;101519.56;5099140;28;20105;-64
2023/07/14 08:15:56;;;;;;;6.65;2.15;;;;;;;20.59;100.00;101520.47;5091654;28;20047;-63
2023/07/14 08:18:23;;;;;;;;;;;;;;;20.63;100.00;101519.31;5086422;28;20109;-64
2023/07/14 08:20:50;;;;;;;3.95;2.53;;;;;;;20.71;100.00;101510.63;5080520;28;20336;-64
2023/07/14 08:23:19;;;;;;;7.13;1.77;;;;;;;20.75;100.00;101505.91;5088742;28;20048;-64
2023/07/14 08:25:57;;;;;;;20.90;11.10;;;;;;;21.00;100.00;101505.69;5087423;28;20476;-64
2023/07/14 08:28:24;;;;;;;5.47;1.70;;;;;;;21.24;100.00;101504.78;5092262;28;20175;-64
2023/07/14 08:30:57;;;;;;;6.60;1.70;;;;;;;21.49;100.00;101503.69;5094525;28;20044;-65
2023/07/14 08:33:25;;;;;;;3.60;1.30;;;;;;;21.23;100.00;101505.72;5066194;28;20040;-64
2023/07/14 08:35:53;;;;;;;4.93;1.75;;;;;;;21.27;100.00;101508.06;5086797;28;20055;-65
2023/07/14 08:38:21;;;;;;;7.07;2.25;;;;;;;21.17;100.00;101501.72;5096544;28;20455;-63
2023/07/14 08:40:58;;;;;;;6.75;2.83;;;;;;;20.80;100.00;101509.94;5089379;28;20075;-63
2023/07/14 08:43:39;;;;;;;4.47;1.88;;;;;;;20.84;100.00;101499.81;5080239;28;20468;-64
2023/07/14 08:46:25;;;;;;;3.63;1.73;;;;;;;21.07;100.00;101506.97;5081106;28;20562;-64
2023/07/14 08:49:03;;;;;;;2.35;1.50;;;;;;;21.19;100.00;101509.66;5089282;28;20602;-64
2023/07/14 08:51:37;;;;;;;3.70;1.88;;;;;;;21.33;100.00;101501.34;5089460;28;20576;-65
2023/07/14 08:54:12;;;;;;;3.90;1.63;;;;;;;21.12;100.00;101503.03;5087799;28;20074;-65
2023/07/14 08:56:41;;;;;;;2.70;1.63;;;;;;;21.16;100.00;101507.22;5081452;28;20081;-65
2023/07/14 08:59:18;;;;;;;2.80;1.60;;;;;;;21.03;100.00;101499.25;5086691;28;20091;-64
2023/07/14 09:01:54;;;;;;;3.95;1.38;;;;;;;21.31;100.00;101497.91;5098836;28;20472;-65
2023/07/14 09:04:27;;;;;;;4.93;2.55;;;;;;;21.43;100.00;101496.94;5081810;28;20082;-63
2023/07/14 09:06:54;;;;;;;4.25;1.50;;;;;;;21.61;100.00;101496.47;5095944;28;20043;-65
2023/07/14 09:09:29;;;;;;;4.45;1.67;;;;;;;21.94;100.00;101489.34;5091869;28;20143;-65
2023/07/14 09:12:09;;;;;;;4.30;2.08;;;;;;;21.90;100.00;101488.72;5089777;28;20067;-64
2023/07/14 09:14:43;;;;;;;5.85;1.45;;;;;;;22.18;100.00;101490.00;5069869;28;20083;-65
2023/07/14 09:17:18;;;;;;;5.22;2.38;;;;;;;22.53;100.00;101486.19;5090248;28;20071;-65
2023/07/14 09:20:22;;;;;;;4.15;2.35;;;;;;;22.79;100.00;101480.41;5091862;28;20055;-64
2023/07/14 09:23:00;;;;;;;5.03;1.60;;;;;;;22.71;100.00;101488.31;5097569;28;20139;-65
2023/07/14 09:25:37;;;;;;;5.38;1.30;;;;;;;22.81;100.00;101483.84;5102048;28;20410;-66
2023/07/14 09:28:14;;;;;;;7.28;2.38;;;;;;;22.07;100.00;101484.66;5094458;28;20043;-64
2023/07/14 09:30:43;;;;;;;5.72;2.35;;;;;;;21.98;100.00;101474.63;5099328;28;20082;-65
2023/07/14 09:33:14;;;;;;;5.18;1.88;;;;;;;22.34;100.00;101475.25;5083655;28;20135;-66
2023/07/14 09:35:41;;;;;;;;;;;;;;;22.28;100.00;101470.34;5074652;28;20051;-65
2023/07/14 09:38:19;;;;;;;11.60;1.80;;;;;;;22.17;100.00;101473.97;5091171;28;19995;-66
2023/07/14 09:40:53;;;;;;;14.05;2.83;;;;;;;22.09;100.00;101474.59;5078741;28;20404;-66
2023/07/14 09:43:20;;;;;;;4.85;1.63;;;;;;;22.10;100.00;101476.31;5078666;28;20062;-67
2023/07/14 09:45:53;;;;;;;3.30;1.48;;;;;;;22.38;100.00;101471.34;5083043;28;20123;-66
2023/07/14 09:48:25;;;;;;;4.00;1.70;;;;;;;22.43;100.00;101463.72;5087561;28;20133;-67
2023/07/14 09:51:05;;;;;;;2.90;1.60;;;;;;;22.60;100.00;101464.13;5088473;28;20111;-66
2023/07/14 09:53:33;;;;;;;2.33;1.55;;;;;;;22.86;100.00;101469.97;5092286;28;20079;-66
2023/07/14 09:56:06;;;;;;;3.95;1.25;;;;;;;22.91;100.00;101457.78;5091350;28;20095;-65
2023/07/14 09:58:33;;;;;;;3.95;1.48;;;;;;;22.75;100.00;101454.72;5085478;28;20083;-71
2023/07/14 10:01:06;;;;;;;5.60;1.80;;;;;;;23.01;100.00;101457.00;5083865;28;20131;-68
2023/07/14 10:03:47;;;;;;;4.35;1.70;;;;;;;23.12;100.00;101443.47;5076774;28;20052;-68
2023/07/14 10:06:20;;;;;;;7.97;1.77;;;;;;;23.24;100.00;101446.91;5084855;28;20049;-67
2023/07/14 10:08:54;;;;;;;3.83;1.77;;;;;;;23.51;100.00;101443.59;5070420;28;20053;-65
2023/07/14 10:11:45;;;;;;;6.53;2.40;;;;;;;23.53;100.00;101444.31;5085204;28;20551;-66
2023/07/14 10:14:25;;;;;;;5.38;2.42;;;;;;;23.09;100.00;101449.13;5083992;28;20036;-65
2023/07/14 10:16:54;;;;;;;3.63;1.77;;;;;;;23.24;100.00;101436.97;5084039;28;20044;-66
2023/07/14 10:19:22;;;;;;;4.13;2.03;;;;;;;23.30;100.00;101429.34;5086216;28;20052;-66
2023/07/14 10:22:04;;;;;;;4.10;1.67;;;;;;;23.73;100.00;101437.09;5087776;28;20744;-67
2023/07/14 10:24:31;;;;;;;4.13;1.88;;;;;;;23.97;100.00;101433.19;5088880;28;20340;-67
2023/07/14 10:27:03;;;;;;;3.78;1.67;;;;;;;24.03;100.00;101438.03;5077794;28;20052;-66
2023/07/14 10:29:45;;;;;;;3.00;1.38;;;;;;;24.15;100.00;101430.63;5084570;28;20048;-67
2023/07/14 10:32:24;;;;;;;4.25;2.17;;;;;;;23.95;100.00;101425.25;5084704;28;20142;-66
2023/07/14 10:35:15;;;;;;;3.75;1.95;;;;;;;24.18;100.00;101424.97;5074638;28;20045;-67
2023/07/14 10:37:51;;;;;;;2.97;1.60;;;;;;;23.85;100.00;101418.97;5095181;28;20044;-67
2023/07/14 10:40:22;;;;;;;3.67;1.95;;;;;;;23.98;100.00;101414.16;5084139;28;20050;-67
2023/07/14 10:43:10;;;;;;;;;;;;;;;23.80;100.00;101415.78;5084960;28;20072;-67
2023/07/14 10:45:40;;;;;;;3.10;1.50;;;;;;;23.85;100.00;101408.19;5087159;28;20409;-66
2023/07/14 10:48:16;;;;;;;3.40;1.50;;;;;;;24.06;100.00;101410.72;5090374;28;20044;-67
2023/07/14 10:50:58;;;;;;;4.82;1.48;;;;;;;24.43;100.00;101404.59;5092986;28;20084;-67
2023/07/14 10:53:42;;;;;;;3.30;1.65;;;;;;;24.92;96.64;101396.38;5090709;28;20048;-66
2023/07/14 10:56:23;;;;;;;3.78;1.95;;;;;;;25.73;90.86;101401.09;5088535;28;20146;-67
2023/07/14 10:59:02;;;;;;;6.90;2.03;;;;;;;25.77;88.87;101402.47;5090152;28;20458;-66
2023/07/14 11:01:36;;;;;;;3.03;1.52;;;;;;;26.45;83.78;101390.22;5091161;28;20053;-66
2023/07/14 11:04:14;;;;;;;5.00;1.90;;;;;;;27.12;81.53;101392.31;5104557;28;20051;-66
2023/07/14 11:06:45;;;;;;;6.10;1.90;;;;;;;27.20;78.80;101384.22;5091774;28;20054;-67
2023/07/14 11:09:12;;;;;;;5.07;1.63;;;;;;;26.63;79.84;101386.59;5084894;28;20059;-66
2023/07/14 11:12:03;;;;;;;4.30;1.52;;;;;;;27.10;75.69;101378.91;5084091;28;20181;-66
2023/07/14 11:15:07;;;;;;;6.38;2.00;;;;;;;27.95;67.58;101377.94;5088858;28;20071;-68
2023/07/14 11:17:47;;;;;;;3.60;1.75;;;;;;;28.10;63.41;101377.28;5075466;28;20048;-65
2023/07/14 11:20:19;;;;;;;4.35;1.90;;;;;;;28.79;60.72;101372.28;5086693;28;20053;-65
2023/07/14 11:23:01;;;;;;;5.72;1.88;;;;;;;29.05;57.18;101365.69;5071126;28;20606;-65
2023/07/14 11:25:33;;;;;;;2.92;1.75;;;;;;;26.80;72.09;101361.31;5091369;28;20076;-66
2023/07/14 11:28:19;;;;;;;3.42;2.13;;;;;;;29.04;62.65;101356.69;5082405;28;20471;-66
2023/07/14 11:30:51;;;;;;;4.53;2.13;;;;;;;30.52;51.21;101350.19;5086516;28;20464;-65
2023/07/14 11:33:38;;;;;;;3.58;1.55;;;;;;;30.99;45.27;101350.00;5089045;28;20652;-66
2023/07/14 11:36:20;;;;;;;5.70;1.48;;;;;;;28.40;56.99;101358.56;5086340;28;20072;-67